createdAt,value
2018-09-18T00:03:19.197Z,3.80
2018-09-18T00:08:23.234Z,4.43
2018-09-18T00:13:27.091Z,4.00
2018-09-18T00:18:30.910Z,4.00
2018-09-18T00:23:34.693Z,3.63
2018-09-18T00:28:38.494Z,3.93
2018-09-18T00:33:43.287Z,3.80
2018-09-18T00:38:47.535Z,4.03
2018-09-18T00:43:51.331Z,3.90
2018-09-18T00:48:55.130Z,4.17
2018-09-18T00:53:58.955Z,4.20
2018-09-18T00:59:02.766Z,3.90
2018-09-18T01:04:06.590Z,4.10
2018-09-18T01:09:11.085Z,4.00
2018-09-18T01:14:15.150Z,4.20
2018-09-18T01:19:18.950Z,4.17
2018-09-18T01:24:22.742Z,4.50
2018-09-18T01:29:26.550Z,4.33
2018-09-18T01:34:30.411Z,4.10
2018-09-18T01:39:34.210Z,4.25
2018-09-18T01:44:38.026Z,3.97
2018-09-18T01:49:41.903Z,4.00
2018-09-18T01:54:45.697Z,4.33
2018-09-18T01:59:50.267Z,4.00
2018-09-18T02:04:54.331Z,3.97
2018-09-18T02:10:01.014Z,4.47
2018-09-18T02:15:04.860Z,4.50
2018-09-18T02:20:08.613Z,4.63
2018-09-18T02:25:12.488Z,3.67
2018-09-18T02:30:16.344Z,3.80
2018-09-18T02:35:20.367Z,4.30
2018-09-18T02:40:24.186Z,4.43
2018-09-18T02:45:27.990Z,4.57
2018-09-18T02:50:31.787Z,4.20
2018-09-18T02:55:35.587Z,4.70
2018-09-18T03:00:39.386Z,4.20
2018-09-18T03:05:43.257Z,4.13
2018-09-18T03:10:47.350Z,4.00
2018-09-18T03:15:51.426Z,4.50
2018-09-18T03:20:55.325Z,4.40
2018-09-18T03:25:59.142Z,4.60
2018-09-18T03:31:03.234Z,4.77
2018-09-18T03:36:07.393Z,4.37
2018-09-18T03:41:11.342Z,4.40
2018-09-18T03:46:15.464Z,4.10
2018-09-18T03:51:19.294Z,4.53
2018-09-18T03:56:23.134Z,4.60
2018-09-18T04:01:27.000Z,4.40
2018-09-18T04:06:30.843Z,4.40
2018-09-18T04:11:34.677Z,4.10
2018-09-18T04:16:38.537Z,4.00
2018-09-18T04:21:42.998Z,4.40
2018-09-18T04:26:46.849Z,4.33
2018-09-18T04:31:53.712Z,4.43
2018-09-18T04:36:57.530Z,4.63
2018-09-18T04:42:01.358Z,4.57
2018-09-18T04:47:05.446Z,4.23
2018-09-18T04:52:09.267Z,4.50
2018-09-18T04:57:13.372Z,4.93
2018-09-18T05:02:17.189Z,4.67
2018-09-18T05:07:21.564Z,5.10
2018-09-18T05:12:25.371Z,4.67
2018-09-18T05:17:29.207Z,4.60
2018-09-18T05:22:33.226Z,4.60
2018-09-18T05:27:37.283Z,4.90
2018-09-18T05:32:41.696Z,4.53
2018-09-18T05:37:45.539Z,4.60
2018-09-18T05:42:49.337Z,4.70
2018-09-18T05:47:53.125Z,4.90
2018-09-18T05:52:57.047Z,4.70
2018-09-18T05:58:00.941Z,5.20
2018-09-18T06:03:04.742Z,4.57
2018-09-18T06:08:08.546Z,4.70
2018-09-18T06:13:12.421Z,4.70
2018-09-18T06:18:16.511Z,4.37
2018-09-18T06:23:20.345Z,4.40
2018-09-18T06:28:24.471Z,4.80
2018-09-18T06:33:28.370Z,4.53
2018-09-18T06:38:32.461Z,4.33
2018-09-18T06:43:36.547Z,4.20
2018-09-18T06:48:40.411Z,4.10
2018-09-18T06:53:44.501Z,4.03
2018-09-18T06:58:48.765Z,4.00
2018-09-18T07:03:52.631Z,4.03
2018-09-18T07:08:56.499Z,3.47
2018-09-18T07:14:00.313Z,3.50
2018-09-18T07:19:04.412Z,3.83
2018-09-18T07:24:08.207Z,3.53
2018-09-18T07:29:12.234Z,3.63
2018-09-18T07:34:16.279Z,4.53
2018-09-18T07:39:20.083Z,3.53
2018-09-18T07:44:23.924Z,3.33
2018-09-18T07:49:27.815Z,3.40
2018-09-18T07:54:31.619Z,3.50
2018-09-18T07:59:35.421Z,3.53
2018-09-18T08:04:39.225Z,3.20
2018-09-18T08:09:43.020Z,3.60
2018-09-18T08:14:46.819Z,3.50
2018-09-18T08:19:50.649Z,3.30
2018-09-18T08:24:54.431Z,3.42
2018-09-18T08:29:58.237Z,3.30
2018-09-18T08:35:02.275Z,3.15
2018-09-18T08:40:06.334Z,3.33
2018-09-18T08:45:10.372Z,3.15
2018-09-18T08:50:14.383Z,3.37
2018-09-18T08:55:18.198Z,3.30
2018-09-18T09:00:22.081Z,3.45
2018-09-18T09:05:26.208Z,3.62
2018-09-18T09:10:30.369Z,3.47
2018-09-18T09:15:34.261Z,3.17
2018-09-18T09:20:38.299Z,3.15
2018-09-18T09:25:42.451Z,3.52
2018-09-18T09:30:46.279Z,3.42
2018-09-18T09:35:50.346Z,3.58
2018-09-18T09:40:54.230Z,3.45
2018-09-18T09:45:58.162Z,3.40
2018-09-18T09:51:03.457Z,3.30
2018-09-18T09:56:08.850Z,3.33
2018-09-18T10:01:18.072Z,3.12
2018-09-18T10:06:22.155Z,3.42
2018-09-18T10:11:27.011Z,3.62
2018-09-18T10:16:30.857Z,3.25
2018-09-18T10:21:34.675Z,3.67
2018-09-18T10:26:38.633Z,3.58
2018-09-18T10:31:43.018Z,3.33
2018-09-18T10:36:47.132Z,3.70
2018-09-18T10:41:51.358Z,3.90
2018-09-18T10:46:55.323Z,3.47
2018-09-18T10:51:59.430Z,3.90
2018-09-18T10:57:03.525Z,3.87
2018-09-18T11:02:08.001Z,3.80
2018-09-18T11:07:12.108Z,3.90
2018-09-18T11:12:15.860Z,4.53
2018-09-18T11:17:19.904Z,4.25
2018-09-18T11:22:24.069Z,3.80
2018-09-18T11:27:27.995Z,4.17
2018-09-18T11:32:32.220Z,4.23
2018-09-18T11:37:36.163Z,4.70
2018-09-18T11:42:39.987Z,4.03
2018-09-18T11:47:44.062Z,4.40
2018-09-18T11:52:48.210Z,4.47
2018-09-18T11:57:52.284Z,4.42
2018-09-18T12:02:56.164Z,4.40
2018-09-18T12:08:00.866Z,4.50
2018-09-18T12:13:04.966Z,4.83
2018-09-18T12:18:09.076Z,3.95
2018-09-18T12:23:12.913Z,3.60
2018-09-18T12:28:16.998Z,3.80
2018-09-18T12:33:21.072Z,3.87
2018-09-18T12:38:24.955Z,3.70
2018-09-18T12:43:28.802Z,3.42
2018-09-18T12:48:33.007Z,3.72
2018-09-18T12:53:36.861Z,3.90
2018-09-18T12:58:40.669Z,3.52
2018-09-18T13:03:44.686Z,3.60
2018-09-18T13:08:48.738Z,3.10
2018-09-18T13:13:52.617Z,3.00
2018-09-18T13:18:56.720Z,2.80
2018-09-18T13:24:00.807Z,2.67
2018-09-18T13:29:04.878Z,3.15
2018-09-18T13:34:08.951Z,3.00
2018-09-18T13:39:12.978Z,3.05
2018-09-18T13:44:17.051Z,3.08
2018-09-18T13:49:21.142Z,3.08
2018-09-18T13:54:25.257Z,3.27
2018-09-18T13:59:29.389Z,3.33
2018-09-18T14:04:33.475Z,3.15
2018-09-18T14:09:37.311Z,3.00
2018-09-18T14:14:42.014Z,3.10
2018-09-18T14:19:45.777Z,3.10
2018-09-18T14:24:49.710Z,3.20
2018-09-18T14:29:53.558Z,2.87
2018-09-18T14:34:57.435Z,3.22
2018-09-18T14:40:01.513Z,3.10
2018-09-18T14:45:05.674Z,3.10
2018-09-18T14:50:09.776Z,3.00
2018-09-18T14:55:14.246Z,2.83
2018-09-18T15:00:18.116Z,2.85
2018-09-18T15:05:21.918Z,3.40
2018-09-18T15:10:25.807Z,3.45
2018-09-18T15:15:30.500Z,3.30
2018-09-18T15:20:34.593Z,3.50
2018-09-18T15:25:38.995Z,2.90
2018-09-18T15:30:42.841Z,2.85
2018-09-18T15:35:46.706Z,2.40
2018-09-18T15:40:50.519Z,2.40
2018-09-18T15:45:54.384Z,2.20
2018-09-18T15:50:58.154Z,2.30
2018-09-18T15:56:01.963Z,1.90
2018-09-18T16:01:05.784Z,1.87
2018-09-18T16:06:09.725Z,1.87
2018-09-18T16:11:14.472Z,1.82
2018-09-18T16:16:18.687Z,1.85
2018-09-18T16:21:22.440Z,2.50
2018-09-18T16:26:26.335Z,1.90
2018-09-18T16:31:30.185Z,1.98
2018-09-18T16:36:34.022Z,2.33
2018-09-18T16:41:37.968Z,2.30
2018-09-18T16:46:41.896Z,2.30
2018-09-18T16:51:45.752Z,1.95
2018-09-18T16:56:49.633Z,1.80
2018-09-18T17:01:53.519Z,1.77
2018-09-18T17:06:57.411Z,1.98
2018-09-18T17:12:08.148Z,1.80
2018-09-18T17:17:12.343Z,1.92
2018-09-18T17:22:16.204Z,1.80
2018-09-18T17:27:20.308Z,2.20
2018-09-18T17:32:24.405Z,2.10
2018-09-18T17:37:28.501Z,2.00
2018-09-18T17:42:32.606Z,1.90
2018-09-18T17:47:36.837Z,1.90
2018-09-18T17:52:40.649Z,2.10
2018-09-18T17:57:44.865Z,2.20
2018-09-18T18:02:48.951Z,2.25
2018-09-18T18:07:52.807Z,2.00
2018-09-18T18:12:56.677Z,2.00
2018-09-18T18:18:00.473Z,2.30
2018-09-18T18:23:04.504Z,2.10
2018-09-18T18:28:08.583Z,2.00
2018-09-18T18:33:12.799Z,1.97
2018-09-18T18:38:16.871Z,2.13
2018-09-18T18:43:21.093Z,1.90
2018-09-18T18:48:25.260Z,2.13
2018-09-18T18:53:29.578Z,2.30
2018-09-18T18:58:33.691Z,2.30
2018-09-18T19:03:37.799Z,2.10
2018-09-18T19:08:44.995Z,2.03
2018-09-18T19:13:48.808Z,2.37
2018-09-18T19:18:52.686Z,2.47
2018-09-18T19:23:56.838Z,2.03
2018-09-18T19:29:00.731Z,2.20
2018-09-18T19:34:04.774Z,2.50
2018-09-18T19:39:10.291Z,2.23
2018-09-18T19:44:14.110Z,2.47
2018-09-18T19:49:17.915Z,2.10
2018-09-18T19:54:21.723Z,2.50
2018-09-18T19:59:25.642Z,2.70
2018-09-18T20:04:29.479Z,2.47
2018-09-18T20:09:33.286Z,2.77
2018-09-18T20:14:37.115Z,2.27
2018-09-18T20:19:41.192Z,2.63
2018-09-18T20:24:44.985Z,2.73
2018-09-18T20:29:49.164Z,2.70
2018-09-18T20:34:53.112Z,2.60
2018-09-18T20:39:57.198Z,2.40
2018-09-18T20:45:01.223Z,3.10
2018-09-18T20:50:05.309Z,2.70
2018-09-18T20:55:09.143Z,2.60
2018-09-18T21:00:13.200Z,3.00
2018-09-18T21:05:16.999Z,3.17
2018-09-18T21:10:20.787Z,3.30
2018-09-18T21:15:24.916Z,2.90
2018-09-18T21:20:29.599Z,3.23
2018-09-18T21:26:11.972Z,3.20
2018-09-18T21:31:15.999Z,3.00
2018-09-18T21:36:20.045Z,2.90
2018-09-18T21:41:24.080Z,3.10
2018-09-18T21:46:28.110Z,3.30
2018-09-18T21:51:32.167Z,2.80
2018-09-18T21:56:35.969Z,3.50
2018-09-18T22:01:40.072Z,3.10
2018-09-18T22:06:43.912Z,3.30
2018-09-18T22:11:47.720Z,3.07
2018-09-18T22:16:51.597Z,3.20
2018-09-18T22:21:55.542Z,3.57
2018-09-18T22:26:59.430Z,3.00
2018-09-18T22:32:03.332Z,3.33
2018-09-18T22:37:07.443Z,3.30
2018-09-18T22:42:11.578Z,3.37
2018-09-18T22:47:15.431Z,3.50
2018-09-18T22:52:19.262Z,3.70
2018-09-18T22:57:23.726Z,3.97
2018-09-18T23:02:27.573Z,4.00
2018-09-18T23:07:31.414Z,3.80
2018-09-18T23:12:35.317Z,3.93
2018-09-18T23:17:39.143Z,3.37
2018-09-18T23:22:43.078Z,3.80
2018-09-18T23:27:46.867Z,3.87
2018-09-18T23:32:50.915Z,4.53
2018-09-18T23:37:56.014Z,3.93
2018-09-18T23:43:00.115Z,3.90
2018-09-18T23:48:03.921Z,3.63
2018-09-18T23:53:07.727Z,3.93
2018-09-18T23:58:11.573Z,3.83
